sensor_id;sensor_type;location;lat;lon;timestamp;P1;durP1;ratioP1;P2;durP2;ratioP2
8040;SDS011;4063;48.140;10.250;2023-07-29T00:00:23;0.20;;;0.20;;
8040;SDS011;4063;48.140;10.250;2023-07-29T00:02:49;0.17;;;0.17;;
8040;SDS011;4063;48.140;10.250;2023-07-29T00:05:15;0.20;;;0.20;;
8040;SDS011;4063;48.140;10.250;2023-07-29T00:07:41;0.20;;;0.20;;
8040;SDS011;4063;48.140;10.250;2023-07-29T00:10:07;0.10;;;0.10;;
8040;SDS011;4063;48.140;10.250;2023-07-29T00:12:33;0.20;;;0.20;;
8040;SDS011;4063;48.140;10.250;2023-07-29T00:14:59;0.20;;;0.20;;
8040;SDS011;4063;48.140;10.250;2023-07-29T00:17:25;0.30;;;0.30;;
8040;SDS011;4063;48.140;10.250;2023-07-29T00:19:51;0.20;;;0.20;;
8040;SDS011;4063;48.140;10.250;2023-07-29T00:22:17;0.20;;;0.20;;
8040;SDS011;4063;48.140;10.250;2023-07-29T00:24:43;0.20;;;0.20;;
8040;SDS011;4063;48.140;10.250;2023-07-29T00:27:09;0.60;;;0.43;;
8040;SDS011;4063;48.140;10.250;2023-07-29T00:29:35;0.22;;;0.22;;
8040;SDS011;4063;48.140;10.250;2023-07-29T00:32:01;0.17;;;0.17;;
8040;SDS011;4063;48.140;10.250;2023-07-29T00:34:27;0.20;;;0.20;;
8040;SDS011;4063;48.140;10.250;2023-07-29T00:36:53;0.20;;;0.20;;
8040;SDS011;4063;48.140;10.250;2023-07-29T00:39:19;0.40;;;0.40;;
8040;SDS011;4063;48.140;10.250;2023-07-29T00:41:46;0.20;;;0.20;;
8040;SDS011;4063;48.140;10.250;2023-07-29T00:44:12;0.20;;;0.20;;
8040;SDS011;4063;48.140;10.250;2023-07-29T00:46:38;0.35;;;0.35;;
8040;SDS011;4063;48.140;10.250;2023-07-29T00:49:04;0.20;;;0.20;;
8040;SDS011;4063;48.140;10.250;2023-07-29T00:51:30;0.20;;;0.20;;
8040;SDS011;4063;48.140;10.250;2023-07-29T00:53:56;0.20;;;0.20;;
8040;SDS011;4063;48.140;10.250;2023-07-29T00:56:22;0.10;;;0.10;;
8040;SDS011;4063;48.140;10.250;2023-07-29T00:58:48;0.10;;;0.10;;
8040;SDS011;4063;48.140;10.250;2023-07-29T01:01:14;0.20;;;0.20;;
8040;SDS011;4063;48.140;10.250;2023-07-29T01:03:40;0.20;;;0.20;;
8040;SDS011;4063;48.140;10.250;2023-07-29T01:06:08;0.20;;;0.20;;
8040;SDS011;4063;48.140;10.250;2023-07-29T01:08:45;0.20;;;0.20;;
8040;SDS011;4063;48.140;10.250;2023-07-29T01:11:18;0.20;;;0.20;;
8040;SDS011;4063;48.140;10.250;2023-07-29T01:13:48;0.20;;;0.20;;
8040;SDS011;4063;48.140;10.250;2023-07-29T01:16:19;0.20;;;0.20;;
8040;SDS011;4063;48.140;10.250;2023-07-29T01:18:47;0.15;;;0.15;;
8040;SDS011;4063;48.140;10.250;2023-07-29T01:21:13;0.20;;;0.20;;
8040;SDS011;4063;48.140;10.250;2023-07-29T01:23:39;0.10;;;0.10;;
8040;SDS011;4063;48.140;10.250;2023-07-29T01:26:05;0.20;;;0.20;;
8040;SDS011;4063;48.140;10.250;2023-07-29T01:28:31;0.20;;;0.20;;
8040;SDS011;4063;48.140;10.250;2023-07-29T01:31:01;0.20;;;0.20;;
8040;SDS011;4063;48.140;10.250;2023-07-29T01:33:30;0.20;;;0.20;;
8040;SDS011;4063;48.140;10.250;2023-07-29T01:39:00;0.20;;;0.20;;
8040;SDS011;4063;48.140;10.250;2023-07-29T01:41:28;0.65;;;0.65;;
8040;SDS011;4063;48.140;10.250;2023-07-29T01:43:54;0.20;;;0.20;;
8040;SDS011;4063;48.140;10.250;2023-07-29T01:46:21;0.20;;;0.20;;
8040;SDS011;4063;48.140;10.250;2023-07-29T01:48:47;0.20;;;0.20;;
8040;SDS011;4063;48.140;10.250;2023-07-29T01:51:13;0.20;;;0.20;;
8040;SDS011;4063;48.140;10.250;2023-07-29T01:53:40;0.20;;;0.20;;
8040;SDS011;4063;48.140;10.250;2023-07-29T01:56:06;0.20;;;0.20;;
8040;SDS011;4063;48.140;10.250;2023-07-29T01:58:32;0.15;;;0.15;;
8040;SDS011;4063;48.140;10.250;2023-07-29T02:00:58;0.20;;;0.20;;
8040;SDS011;4063;48.140;10.250;2023-07-29T02:03:24;0.30;;;0.30;;
8040;SDS011;4063;48.140;10.250;2023-07-29T02:05:50;0.20;;;0.20;;
8040;SDS011;4063;48.140;10.250;2023-07-29T02:08:16;0.20;;;0.20;;
8040;SDS011;4063;48.140;10.250;2023-07-29T02:10:42;0.30;;;0.30;;
8040;SDS011;4063;48.140;10.250;2023-07-29T02:13:10;0.20;;;0.20;;
8040;SDS011;4063;48.140;10.250;2023-07-29T02:15:36;0.20;;;0.20;;
8040;SDS011;4063;48.140;10.250;2023-07-29T02:18:02;0.20;;;0.20;;
8040;SDS011;4063;48.140;10.250;2023-07-29T02:20:28;0.30;;;0.30;;
8040;SDS011;4063;48.140;10.250;2023-07-29T02:22:54;0.20;;;0.20;;
8040;SDS011;4063;48.140;10.250;2023-07-29T02:25:20;0.30;;;0.30;;
8040;SDS011;4063;48.140;10.250;2023-07-29T02:27:46;0.20;;;0.20;;
8040;SDS011;4063;48.140;10.250;2023-07-29T02:30:12;0.20;;;0.20;;
8040;SDS011;4063;48.140;10.250;2023-07-29T02:32:38;0.20;;;0.20;;
8040;SDS011;4063;48.140;10.250;2023-07-29T02:35:04;0.20;;;0.20;;
8040;SDS011;4063;48.140;10.250;2023-07-29T02:37:30;0.20;;;0.20;;
8040;SDS011;4063;48.140;10.250;2023-07-29T02:39:56;0.20;;;0.20;;
8040;SDS011;4063;48.140;10.250;2023-07-29T02:42:22;0.20;;;0.20;;
8040;SDS011;4063;48.140;10.250;2023-07-29T02:44:48;0.20;;;0.20;;
8040;SDS011;4063;48.140;10.250;2023-07-29T02:47:14;0.20;;;0.20;;
8040;SDS011;4063;48.140;10.250;2023-07-29T02:49:40;0.20;;;0.20;;
8040;SDS011;4063;48.140;10.250;2023-07-29T02:52:06;0.20;;;0.20;;
8040;SDS011;4063;48.140;10.250;2023-07-29T02:54:32;0.20;;;0.20;;
8040;SDS011;4063;48.140;10.250;2023-07-29T02:56:58;0.20;;;0.20;;
8040;SDS011;4063;48.140;10.250;2023-07-29T02:59:24;0.20;;;0.20;;
8040;SDS011;4063;48.140;10.250;2023-07-29T03:01:50;0.20;;;0.20;;
8040;SDS011;4063;48.140;10.250;2023-07-29T03:04:16;0.20;;;0.20;;
8040;SDS011;4063;48.140;10.250;2023-07-29T03:06:42;0.20;;;0.20;;
8040;SDS011;4063;48.140;10.250;2023-07-29T03:09:08;0.20;;;0.20;;
8040;SDS011;4063;48.140;10.250;2023-07-29T03:11:34;0.10;;;0.10;;
8040;SDS011;4063;48.140;10.250;2023-07-29T03:14:00;0.20;;;0.20;;
8040;SDS011;4063;48.140;10.250;2023-07-29T03:16:27;0.20;;;0.20;;
8040;SDS011;4063;48.140;10.250;2023-07-29T03:18:53;0.13;;;0.13;;
8040;SDS011;4063;48.140;10.250;2023-07-29T03:21:19;0.30;;;0.30;;
8040;SDS011;4063;48.140;10.250;2023-07-29T03:23:45;0.20;;;0.20;;
8040;SDS011;4063;48.140;10.250;2023-07-29T03:26:11;0.20;;;0.20;;
8040;SDS011;4063;48.140;10.250;2023-07-29T03:28:38;0.20;;;0.20;;
8040;SDS011;4063;48.140;10.250;2023-07-29T03:31:04;0.20;;;0.20;;
8040;SDS011;4063;48.140;10.250;2023-07-29T03:33:30;0.20;;;0.20;;
8040;SDS011;4063;48.140;10.250;2023-07-29T03:35:56;0.20;;;0.20;;
8040;SDS011;4063;48.140;10.250;2023-07-29T03:38:21;0.25;;;0.25;;
8040;SDS011;4063;48.140;10.250;2023-07-29T03:40:47;0.20;;;0.20;;
8040;SDS011;4063;48.140;10.250;2023-07-29T03:43:14;0.20;;;0.20;;
8040;SDS011;4063;48.140;10.250;2023-07-29T03:45:40;0.20;;;0.20;;
8040;SDS011;4063;48.140;10.250;2023-07-29T03:48:06;0.28;;;0.28;;
8040;SDS011;4063;48.140;10.250;2023-07-29T03:50:33;0.20;;;0.20;;
8040;SDS011;4063;48.140;10.250;2023-07-29T03:53:00;0.20;;;0.20;;
8040;SDS011;4063;48.140;10.250;2023-07-29T03:55:26;0.20;;;0.20;;
8040;SDS011;4063;48.140;10.250;2023-07-29T03:57:52;0.20;;;0.20;;
8040;SDS011;4063;48.140;10.250;2023-07-29T04:00:18;0.20;;;0.20;;
8040;SDS011;4063;48.140;10.250;2023-07-29T04:02:44;0.20;;;0.20;;
8040;SDS011;4063;48.140;10.250;2023-07-29T04:05:10;0.20;;;0.20;;
8040;SDS011;4063;48.140;10.250;2023-07-29T04:07:37;0.20;;;0.20;;
8040;SDS011;4063;48.140;10.250;2023-07-29T04:10:03;3.95;;;3.30;;
8040;SDS011;4063;48.140;10.250;2023-07-29T04:12:30;0.20;;;0.20;;
8040;SDS011;4063;48.140;10.250;2023-07-29T04:14:56;0.20;;;0.20;;
8040;SDS011;4063;48.140;10.250;2023-07-29T04:17:22;0.20;;;0.20;;
8040;SDS011;4063;48.140;10.250;2023-07-29T04:19:48;0.40;;;0.40;;
8040;SDS011;4063;48.140;10.250;2023-07-29T04:22:15;0.20;;;0.20;;
8040;SDS011;4063;48.140;10.250;2023-07-29T04:24:41;0.20;;;0.20;;
8040;SDS011;4063;48.140;10.250;2023-07-29T04:27:07;0.20;;;0.20;;
8040;SDS011;4063;48.140;10.250;2023-07-29T04:29:33;0.20;;;0.20;;
8040;SDS011;4063;48.140;10.250;2023-07-29T04:32:00;0.20;;;0.20;;
8040;SDS011;4063;48.140;10.250;2023-07-29T04:34:26;0.20;;;0.20;;
8040;SDS011;4063;48.140;10.250;2023-07-29T04:36:52;0.32;;;0.32;;
8040;SDS011;4063;48.140;10.250;2023-07-29T04:39:18;0.20;;;0.20;;
8040;SDS011;4063;48.140;10.250;2023-07-29T04:41:44;0.20;;;0.20;;
8040;SDS011;4063;48.140;10.250;2023-07-29T04:44:11;0.20;;;0.20;;
8040;SDS011;4063;48.140;10.250;2023-07-29T04:46:37;0.20;;;0.20;;
8040;SDS011;4063;48.140;10.250;2023-07-29T04:49:03;0.22;;;0.22;;
8040;SDS011;4063;48.140;10.250;2023-07-29T04:51:29;0.20;;;0.20;;
8040;SDS011;4063;48.140;10.250;2023-07-29T04:53:56;0.20;;;0.20;;
8040;SDS011;4063;48.140;10.250;2023-07-29T04:56:22;0.20;;;0.20;;
8040;SDS011;4063;48.140;10.250;2023-07-29T04:58:48;0.20;;;0.20;;
8040;SDS011;4063;48.140;10.250;2023-07-29T05:01:14;0.20;;;0.20;;
8040;SDS011;4063;48.140;10.250;2023-07-29T05:03:40;0.15;;;0.15;;
8040;SDS011;4063;48.140;10.250;2023-07-29T05:06:06;0.20;;;0.20;;
8040;SDS011;4063;48.140;10.250;2023-07-29T05:08:32;0.20;;;0.20;;
8040;SDS011;4063;48.140;10.250;2023-07-29T05:10:58;0.20;;;0.20;;
8040;SDS011;4063;48.140;10.250;2023-07-29T05:13:25;0.20;;;0.20;;
8040;SDS011;4063;48.140;10.250;2023-07-29T05:15:51;0.20;;;0.20;;
8040;SDS011;4063;48.140;10.250;2023-07-29T05:18:17;0.20;;;0.20;;
8040;SDS011;4063;48.140;10.250;2023-07-29T05:20:43;0.20;;;0.20;;
8040;SDS011;4063;48.140;10.250;2023-07-29T05:23:09;0.20;;;0.20;;
8040;SDS011;4063;48.140;10.250;2023-07-29T05:25:35;0.13;;;0.13;;
8040;SDS011;4063;48.140;10.250;2023-07-29T05:28:01;0.28;;;0.28;;
8040;SDS011;4063;48.140;10.250;2023-07-29T05:30:28;0.20;;;0.20;;
8040;SDS011;4063;48.140;10.250;2023-07-29T05:32:56;0.20;;;0.20;;
8040;SDS011;4063;48.140;10.250;2023-07-29T05:35:22;0.20;;;0.20;;
8040;SDS011;4063;48.140;10.250;2023-07-29T05:37:48;0.20;;;0.20;;
8040;SDS011;4063;48.140;10.250;2023-07-29T05:40:14;0.22;;;0.22;;
8040;SDS011;4063;48.140;10.250;2023-07-29T05:42:40;0.40;;;0.40;;
8040;SDS011;4063;48.140;10.250;2023-07-29T05:45:06;0.20;;;0.20;;
8040;SDS011;4063;48.140;10.250;2023-07-29T05:47:33;0.17;;;0.17;;
8040;SDS011;4063;48.140;10.250;2023-07-29T05:49:58;0.20;;;0.20;;
8040;SDS011;4063;48.140;10.250;2023-07-29T05:52:29;0.20;;;0.20;;
8040;SDS011;4063;48.140;10.250;2023-07-29T05:54:55;0.20;;;0.20;;
8040;SDS011;4063;48.140;10.250;2023-07-29T05:57:21;0.20;;;0.20;;
8040;SDS011;4063;48.140;10.250;2023-07-29T05:59:47;0.20;;;0.20;;
8040;SDS011;4063;48.140;10.250;2023-07-29T06:02:13;0.20;;;0.20;;
8040;SDS011;4063;48.140;10.250;2023-07-29T06:04:39;0.38;;;0.38;;
8040;SDS011;4063;48.140;10.250;2023-07-29T06:07:05;0.20;;;0.20;;
8040;SDS011;4063;48.140;10.250;2023-07-29T06:09:31;0.20;;;0.20;;
8040;SDS011;4063;48.140;10.250;2023-07-29T06:11:57;0.30;;;0.30;;
8040;SDS011;4063;48.140;10.250;2023-07-29T06:14:23;0.20;;;0.20;;
8040;SDS011;4063;48.140;10.250;2023-07-29T06:16:49;0.10;;;0.10;;
8040;SDS011;4063;48.140;10.250;2023-07-29T06:19:15;0.17;;;0.17;;
8040;SDS011;4063;48.140;10.250;2023-07-29T06:21:41;0.45;;;0.45;;
8040;SDS011;4063;48.140;10.250;2023-07-29T06:24:07;0.20;;;0.20;;
8040;SDS011;4063;48.140;10.250;2023-07-29T06:26:33;0.10;;;0.10;;
8040;SDS011;4063;48.140;10.250;2023-07-29T06:28:59;0.10;;;0.10;;
8040;SDS011;4063;48.140;10.250;2023-07-29T06:31:25;0.35;;;0.35;;
8040;SDS011;4063;48.140;10.250;2023-07-29T06:33:51;0.20;;;0.20;;
8040;SDS011;4063;48.140;10.250;2023-07-29T06:36:17;0.57;;;0.55;;
8040;SDS011;4063;48.140;10.250;2023-07-29T06:38:43;0.13;;;0.13;;
8040;SDS011;4063;48.140;10.250;2023-07-29T06:41:09;0.15;;;0.15;;
8040;SDS011;4063;48.140;10.250;2023-07-29T06:43:35;0.13;;;0.13;;
8040;SDS011;4063;48.140;10.250;2023-07-29T06:46:01;0.20;;;0.20;;
8040;SDS011;4063;48.140;10.250;2023-07-29T06:48:27;0.10;;;0.10;;
8040;SDS011;4063;48.140;10.250;2023-07-29T06:50:53;0.10;;;0.10;;
8040;SDS011;4063;48.140;10.250;2023-07-29T06:53:20;0.10;;;0.10;;
8040;SDS011;4063;48.140;10.250;2023-07-29T06:55:46;0.20;;;0.20;;
8040;SDS011;4063;48.140;10.250;2023-07-29T06:58:12;0.35;;;0.35;;
8040;SDS011;4063;48.140;10.250;2023-07-29T07:00:38;0.13;;;0.13;;
8040;SDS011;4063;48.140;10.250;2023-07-29T07:03:04;0.10;;;0.10;;
8040;SDS011;4063;48.140;10.250;2023-07-29T07:05:30;0.10;;;0.10;;
8040;SDS011;4063;48.140;10.250;2023-07-29T07:07:56;0.10;;;0.10;;
8040;SDS011;4063;48.140;10.250;2023-07-29T07:10:22;0.10;;;0.10;;
8040;SDS011;4063;48.140;10.250;2023-07-29T07:12:48;0.20;;;0.20;;
8040;SDS011;4063;48.140;10.250;2023-07-29T07:15:14;0.20;;;0.20;;
8040;SDS011;4063;48.140;10.250;2023-07-29T07:17:40;0.10;;;0.10;;
8040;SDS011;4063;48.140;10.250;2023-07-29T07:20:06;0.10;;;0.10;;
8040;SDS011;4063;48.140;10.250;2023-07-29T07:22:32;0.32;;;0.32;;
8040;SDS011;4063;48.140;10.250;2023-07-29T07:24:58;0.30;;;0.30;;
8040;SDS011;4063;48.140;10.250;2023-07-29T07:27:24;0.10;;;0.10;;
8040;SDS011;4063;48.140;10.250;2023-07-29T07:29:50;0.13;;;0.13;;
8040;SDS011;4063;48.140;10.250;2023-07-29T07:32:16;0.10;;;0.10;;
8040;SDS011;4063;48.140;10.250;2023-07-29T07:34:42;0.20;;;0.20;;
8040;SDS011;4063;48.140;10.250;2023-07-29T07:37:08;0.10;;;0.10;;
8040;SDS011;4063;48.140;10.250;2023-07-29T07:39:34;0.10;;;0.10;;
8040;SDS011;4063;48.140;10.250;2023-07-29T07:42:00;0.10;;;0.10;;
8040;SDS011;4063;48.140;10.250;2023-07-29T07:44:26;0.20;;;0.20;;
8040;SDS011;4063;48.140;10.250;2023-07-29T07:46:52;0.10;;;0.10;;
8040;SDS011;4063;48.140;10.250;2023-07-29T07:49:18;0.10;;;0.10;;
8040;SDS011;4063;48.140;10.250;2023-07-29T07:51:44;0.10;;;0.10;;
8040;SDS011;4063;48.140;10.250;2023-07-29T07:54:10;0.20;;;0.20;;
8040;SDS011;4063;48.140;10.250;2023-07-29T07:56:36;0.20;;;0.20;;
8040;SDS011;4063;48.140;10.250;2023-07-29T07:59:02;0.00;;;0.00;;
8040;SDS011;4063;48.140;10.250;2023-07-29T08:01:33;0.10;;;0.10;;
8040;SDS011;4063;48.140;10.250;2023-07-29T08:04:00;0.10;;;0.10;;
8040;SDS011;4063;48.140;10.250;2023-07-29T08:06:26;0.10;;;0.10;;
8040;SDS011;4063;48.140;10.250;2023-07-29T08:08:52;0.10;;;0.10;;
8040;SDS011;4063;48.140;10.250;2023-07-29T08:11:18;0.38;;;0.38;;
8040;SDS011;4063;48.140;10.250;2023-07-29T08:13:44;0.10;;;0.10;;
8040;SDS011;4063;48.140;10.250;2023-07-29T08:16:10;0.10;;;0.10;;
8040;SDS011;4063;48.140;10.250;2023-07-29T08:18:36;0.10;;;0.10;;
8040;SDS011;4063;48.140;10.250;2023-07-29T08:21:02;0.10;;;0.10;;
8040;SDS011;4063;48.140;10.250;2023-07-29T08:23:29;0.28;;;0.28;;
8040;SDS011;4063;48.140;10.250;2023-07-29T08:25:56;0.85;;;0.85;;
8040;SDS011;4063;48.140;10.250;2023-07-29T08:28:26;0.20;;;0.20;;
8040;SDS011;4063;48.140;10.250;2023-07-29T08:30:52;0.10;;;0.10;;
8040;SDS011;4063;48.140;10.250;2023-07-29T08:33:18;0.00;;;0.00;;
8040;SDS011;4063;48.140;10.250;2023-07-29T08:35:44;0.10;;;0.10;;
8040;SDS011;4063;48.140;10.250;2023-07-29T08:38:10;0.10;;;0.10;;
8040;SDS011;4063;48.140;10.250;2023-07-29T08:40:37;0.10;;;0.10;;
8040;SDS011;4063;48.140;10.250;2023-07-29T08:43:04;0.00;;;0.00;;
8040;SDS011;4063;48.140;10.250;2023-07-29T08:45:34;0.55;;;0.32;;
8040;SDS011;4063;48.140;10.250;2023-07-29T08:48:07;0.00;;;0.00;;
8040;SDS011;4063;48.140;10.250;2023-07-29T08:50:33;0.00;;;0.00;;
8040;SDS011;4063;48.140;10.250;2023-07-29T08:53:01;0.00;;;0.00;;
8040;SDS011;4063;48.140;10.250;2023-07-29T08:55:29;0.10;;;0.10;;
8040;SDS011;4063;48.140;10.250;2023-07-29T08:57:55;0.00;;;0.00;;
8040;SDS011;4063;48.140;10.250;2023-07-29T09:00:21;0.00;;;0.00;;
8040;SDS011;4063;48.140;10.250;2023-07-29T09:02:47;0.10;;;0.10;;
8040;SDS011;4063;48.140;10.250;2023-07-29T09:05:13;0.35;;;0.35;;
8040;SDS011;4063;48.140;10.250;2023-07-29T09:07:39;0.00;;;0.00;;
8040;SDS011;4063;48.140;10.250;2023-07-29T09:10:08;0.00;;;0.00;;
8040;SDS011;4063;48.140;10.250;2023-07-29T09:12:35;0.00;;;0.00;;
8040;SDS011;4063;48.140;10.250;2023-07-29T09:15:01;0.40;;;0.40;;
8040;SDS011;4063;48.140;10.250;2023-07-29T09:17:31;0.03;;;0.03;;
8040;SDS011;4063;48.140;10.250;2023-07-29T09:19:58;0.00;;;0.00;;
8040;SDS011;4063;48.140;10.250;2023-07-29T09:22:24;0.20;;;0.20;;
8040;SDS011;4063;48.140;10.250;2023-07-29T09:24:52;0.10;;;0.10;;
8040;SDS011;4063;48.140;10.250;2023-07-29T09:27:28;0.10;;;0.10;;
8040;SDS011;4063;48.140;10.250;2023-07-29T09:29:56;0.10;;;0.10;;
8040;SDS011;4063;48.140;10.250;2023-07-29T09:32:23;0.00;;;0.00;;
8040;SDS011;4063;48.140;10.250;2023-07-29T09:34:50;0.05;;;0.05;;
8040;SDS011;4063;48.140;10.250;2023-07-29T09:37:17;0.00;;;0.00;;
8040;SDS011;4063;48.140;10.250;2023-07-29T09:39:47;0.00;;;0.00;;
8040;SDS011;4063;48.140;10.250;2023-07-29T09:42:19;0.85;;;0.47;;
8040;SDS011;4063;48.140;10.250;2023-07-29T09:44:46;3.05;;;2.72;;
8040;SDS011;4063;48.140;10.250;2023-07-29T09:47:25;2.80;;;2.45;;
8040;SDS011;4063;48.140;10.250;2023-07-29T09:49:51;5.05;;;2.88;;
8040;SDS011;4063;48.140;10.250;2023-07-29T09:52:18;2.72;;;2.53;;
8040;SDS011;4063;48.140;10.250;2023-07-29T09:54:45;7.03;;;3.15;;
8040;SDS011;4063;48.140;10.250;2023-07-29T09:57:15;5.15;;;3.05;;
8040;SDS011;4063;48.140;10.250;2023-07-29T09:59:42;2.92;;;2.72;;
8040;SDS011;4063;48.140;10.250;2023-07-29T10:02:15;3.40;;;3.03;;
8040;SDS011;4063;48.140;10.250;2023-07-29T10:04:42;3.75;;;2.90;;
8040;SDS011;4063;48.140;10.250;2023-07-29T10:07:12;4.00;;;3.20;;
8040;SDS011;4063;48.140;10.250;2023-07-29T10:09:39;3.20;;;2.70;;
8040;SDS011;4063;48.140;10.250;2023-07-29T10:12:08;3.55;;;2.88;;
8040;SDS011;4063;48.140;10.250;2023-07-29T10:14:36;3.55;;;3.05;;
8040;SDS011;4063;48.140;10.250;2023-07-29T10:17:02;3.03;;;2.75;;
8040;SDS011;4063;48.140;10.250;2023-07-29T10:19:29;3.22;;;2.92;;
8040;SDS011;4063;48.140;10.250;2023-07-29T10:21:56;3.53;;;3.22;;
8040;SDS011;4063;48.140;10.250;2023-07-29T10:24:25;3.35;;;2.80;;
8040;SDS011;4063;48.140;10.250;2023-07-29T10:26:58;3.33;;;2.90;;
8040;SDS011;4063;48.140;10.250;2023-07-29T10:29:24;7.72;;;3.35;;
8040;SDS011;4063;48.140;10.250;2023-07-29T10:31:54;2.80;;;2.60;;
8040;SDS011;4063;48.140;10.250;2023-07-29T10:34:20;3.28;;;2.97;;
8040;SDS011;4063;48.140;10.250;2023-07-29T10:36:48;2.67;;;2.47;;
8040;SDS011;4063;48.140;10.250;2023-07-29T10:39:14;3.42;;;3.13;;
8040;SDS011;4063;48.140;10.250;2023-07-29T10:49:48;3.42;;;2.88;;
8040;SDS011;4063;48.140;10.250;2023-07-29T10:52:15;3.13;;;2.80;;
8040;SDS011;4063;48.140;10.250;2023-07-29T10:54:46;9.65;;;2.72;;
8040;SDS011;4063;48.140;10.250;2023-07-29T10:57:12;4.22;;;3.03;;
8040;SDS011;4063;48.140;10.250;2023-07-29T10:59:39;5.40;;;3.00;;
8040;SDS011;4063;48.140;10.250;2023-07-29T11:02:15;3.40;;;3.10;;
8040;SDS011;4063;48.140;10.250;2023-07-29T11:04:51;3.38;;;2.80;;
8040;SDS011;4063;48.140;10.250;2023-07-29T11:07:18;3.25;;;2.92;;
8040;SDS011;4063;48.140;10.250;2023-07-29T11:15:03;3.30;;;2.90;;
8040;SDS011;4063;48.140;10.250;2023-07-29T11:17:30;4.65;;;3.15;;
8040;SDS011;4063;48.140;10.250;2023-07-29T11:19:59;3.00;;;2.67;;
8040;SDS011;4063;48.140;10.250;2023-07-29T11:22:26;2.75;;;2.53;;
8040;SDS011;4063;48.140;10.250;2023-07-29T11:24:52;4.28;;;3.10;;
8040;SDS011;4063;48.140;10.250;2023-07-29T11:27:18;4.15;;;2.70;;
8040;SDS011;4063;48.140;10.250;2023-07-29T11:29:44;4.40;;;3.58;;
8040;SDS011;4063;48.140;10.250;2023-07-29T11:32:10;3.40;;;3.10;;
8040;SDS011;4063;48.140;10.250;2023-07-29T11:34:36;4.13;;;3.30;;
8040;SDS011;4063;48.140;10.250;2023-07-29T11:37:02;3.75;;;3.45;;
8040;SDS011;4063;48.140;10.250;2023-07-29T11:39:31;4.25;;;3.67;;
8040;SDS011;4063;48.140;10.250;2023-07-29T11:41:57;5.03;;;3.70;;
8040;SDS011;4063;48.140;10.250;2023-07-29T11:44:24;3.70;;;3.40;;
8040;SDS011;4063;48.140;10.250;2023-07-29T11:46:50;3.70;;;3.25;;
8040;SDS011;4063;48.140;10.250;2023-07-29T11:49:16;3.75;;;3.45;;
8040;SDS011;4063;48.140;10.250;2023-07-29T11:51:42;5.13;;;3.85;;
8040;SDS011;4063;48.140;10.250;2023-07-29T11:54:08;6.45;;;3.70;;
8040;SDS011;4063;48.140;10.250;2023-07-29T11:56:35;3.67;;;3.30;;
8040;SDS011;4063;48.140;10.250;2023-07-29T11:59:01;4.53;;;3.55;;
8040;SDS011;4063;48.140;10.250;2023-07-29T12:01:28;5.15;;;4.15;;
8040;SDS011;4063;48.140;10.250;2023-07-29T12:03:55;4.43;;;3.58;;
8040;SDS011;4063;48.140;10.250;2023-07-29T12:06:22;5.50;;;3.47;;
8040;SDS011;4063;48.140;10.250;2023-07-29T12:08:49;4.55;;;3.55;;
8040;SDS011;4063;48.140;10.250;2023-07-29T12:11:15;4.03;;;3.60;;
8040;SDS011;4063;48.140;10.250;2023-07-29T12:13:42;6.75;;;3.67;;
8040;SDS011;4063;48.140;10.250;2023-07-29T12:16:08;3.85;;;3.45;;
8040;SDS011;4063;48.140;10.250;2023-07-29T12:18:35;4.60;;;3.80;;
8040;SDS011;4063;48.140;10.250;2023-07-29T12:21:02;4.22;;;3.38;;
8040;SDS011;4063;48.140;10.250;2023-07-29T12:23:28;6.65;;;3.70;;
8040;SDS011;4063;48.140;10.250;2023-07-29T12:25:58;5.88;;;4.43;;
8040;SDS011;4063;48.140;10.250;2023-07-29T12:28:25;4.03;;;3.42;;
8040;SDS011;4063;48.140;10.250;2023-07-29T12:30:54;3.65;;;3.38;;
8040;SDS011;4063;48.140;10.250;2023-07-29T12:33:30;3.30;;;3.00;;
8040;SDS011;4063;48.140;10.250;2023-07-29T12:35:56;4.45;;;3.13;;
8040;SDS011;4063;48.140;10.250;2023-07-29T12:38:22;4.55;;;3.20;;
8040;SDS011;4063;48.140;10.250;2023-07-29T12:40:48;3.35;;;3.03;;
8040;SDS011;4063;48.140;10.250;2023-07-29T12:43:14;7.07;;;2.78;;
8040;SDS011;4063;48.140;10.250;2023-07-29T12:45:40;4.25;;;3.17;;
8040;SDS011;4063;48.140;10.250;2023-07-29T12:48:07;3.17;;;2.85;;
8040;SDS011;4063;48.140;10.250;2023-07-29T12:50:33;3.47;;;2.72;;
8040;SDS011;4063;48.140;10.250;2023-07-29T12:52:59;2.60;;;2.40;;
8040;SDS011;4063;48.140;10.250;2023-07-29T12:55:25;2.88;;;2.47;;
8040;SDS011;4063;48.140;10.250;2023-07-29T12:57:51;6.07;;;2.63;;
8040;SDS011;4063;48.140;10.250;2023-07-29T13:00:17;2.53;;;2.30;;
8040;SDS011;4063;48.140;10.250;2023-07-29T13:02:43;3.08;;;2.47;;
8040;SDS011;4063;48.140;10.250;2023-07-29T13:05:10;2.85;;;2.35;;
8040;SDS011;4063;48.140;10.250;2023-07-29T13:07:37;2.70;;;2.50;;
8040;SDS011;4063;48.140;10.250;2023-07-29T13:10:03;2.17;;;2.08;;
8040;SDS011;4063;48.140;10.250;2023-07-29T13:12:29;2.30;;;2.10;;
8040;SDS011;4063;48.140;10.250;2023-07-29T13:14:55;2.00;;;1.90;;
8040;SDS011;4063;48.140;10.250;2023-07-29T13:17:21;3.80;;;2.50;;
8040;SDS011;4063;48.140;10.250;2023-07-29T13:19:48;3.00;;;2.70;;
8040;SDS011;4063;48.140;10.250;2023-07-29T13:22:14;2.65;;;2.20;;
8040;SDS011;4063;48.140;10.250;2023-07-29T13:24:40;3.13;;;2.20;;
8040;SDS011;4063;48.140;10.250;2023-07-29T13:27:06;2.90;;;2.15;;
8040;SDS011;4063;48.140;10.250;2023-07-29T13:29:32;2.78;;;1.95;;
8040;SDS011;4063;48.140;10.250;2023-07-29T13:31:58;2.63;;;2.10;;
8040;SDS011;4063;48.140;10.250;2023-07-29T13:34:24;2.97;;;2.03;;
8040;SDS011;4063;48.140;10.250;2023-07-29T13:36:50;2.70;;;2.50;;
8040;SDS011;4063;48.140;10.250;2023-07-29T13:39:16;5.10;;;2.60;;
8040;SDS011;4063;48.140;10.250;2023-07-29T13:41:42;4.72;;;2.40;;
8040;SDS011;4063;48.140;10.250;2023-07-29T13:44:08;2.58;;;2.38;;
8040;SDS011;4063;48.140;10.250;2023-07-29T13:46:34;2.80;;;2.25;;
8040;SDS011;4063;48.140;10.250;2023-07-29T13:49:00;2.80;;;2.35;;
8040;SDS011;4063;48.140;10.250;2023-07-29T13:51:27;5.10;;;2.72;;
8040;SDS011;4063;48.140;10.250;2023-07-29T13:53:53;2.47;;;2.28;;
8040;SDS011;4063;48.140;10.250;2023-07-29T13:56:19;4.40;;;2.20;;
8040;SDS011;4063;48.140;10.250;2023-07-29T13:58:45;4.97;;;2.50;;
8040;SDS011;4063;48.140;10.250;2023-07-29T14:01:11;2.75;;;2.55;;
8040;SDS011;4063;48.140;10.250;2023-07-29T14:03:37;2.88;;;2.55;;
8040;SDS011;4063;48.140;10.250;2023-07-29T14:06:03;9.10;;;2.80;;
8040;SDS011;4063;48.140;10.250;2023-07-29T14:08:29;2.42;;;2.05;;
8040;SDS011;4063;48.140;10.250;2023-07-29T14:10:55;3.47;;;1.58;;
8040;SDS011;4063;48.140;10.250;2023-07-29T14:13:21;2.47;;;2.05;;
8040;SDS011;4063;48.140;10.250;2023-07-29T14:15:47;3.20;;;2.17;;
8040;SDS011;4063;48.140;10.250;2023-07-29T14:18:13;3.55;;;2.15;;
8040;SDS011;4063;48.140;10.250;2023-07-29T14:20:39;5.75;;;2.28;;
8040;SDS011;4063;48.140;10.250;2023-07-29T14:23:05;3.38;;;2.70;;
8040;SDS011;4063;48.140;10.250;2023-07-29T14:25:31;2.35;;;2.15;;
8040;SDS011;4063;48.140;10.250;2023-07-29T14:27:57;7.30;;;2.47;;
8040;SDS011;4063;48.140;10.250;2023-07-29T14:30:23;2.35;;;2.15;;
8040;SDS011;4063;48.140;10.250;2023-07-29T14:32:49;2.25;;;2.05;;
8040;SDS011;4063;48.140;10.250;2023-07-29T14:35:15;2.92;;;2.70;;
8040;SDS011;4063;48.140;10.250;2023-07-29T14:37:41;2.40;;;2.20;;
8040;SDS011;4063;48.140;10.250;2023-07-29T14:40:07;2.92;;;2.38;;
8040;SDS011;4063;48.140;10.250;2023-07-29T14:42:33;2.40;;;2.20;;
8040;SDS011;4063;48.140;10.250;2023-07-29T14:44:59;3.97;;;2.83;;
8040;SDS011;4063;48.140;10.250;2023-07-29T14:47:25;4.03;;;2.90;;
8040;SDS011;4063;48.140;10.250;2023-07-29T14:49:51;3.67;;;2.67;;
8040;SDS011;4063;48.140;10.250;2023-07-29T14:52:17;2.90;;;2.67;;
8040;SDS011;4063;48.140;10.250;2023-07-29T14:54:43;2.55;;;2.35;;
8040;SDS011;4063;48.140;10.250;2023-07-29T14:57:09;2.30;;;2.10;;
8040;SDS011;4063;48.140;10.250;2023-07-29T14:59:36;2.65;;;2.28;;
8040;SDS011;4063;48.140;10.250;2023-07-29T15:02:02;2.60;;;2.30;;
8040;SDS011;4063;48.140;10.250;2023-07-29T15:04:28;2.55;;;2.30;;
8040;SDS011;4063;48.140;10.250;2023-07-29T15:06:54;4.00;;;2.65;;
8040;SDS011;4063;48.140;10.250;2023-07-29T15:09:20;3.10;;;2.80;;
8040;SDS011;4063;48.140;10.250;2023-07-29T15:11:46;5.97;;;2.70;;